createdAt,value
2023-03-29T00:01:12.970Z,9.75
2023-03-29T00:06:36.178Z,8.73
2023-03-29T00:11:39.439Z,12.40
2023-03-29T00:16:44.640Z,9.30
2023-03-29T00:21:47.386Z,8.38
2023-03-29T00:26:49.984Z,12.52
2023-03-29T00:31:54.338Z,7.10
2023-03-29T00:36:58.142Z,6.57
2023-03-29T00:42:00.808Z,8.48
2023-03-29T00:47:03.613Z,7.10
2023-03-29T00:52:07.420Z,7.95
2023-03-29T00:57:11.845Z,6.13
2023-03-29T01:02:22.281Z,8.25
2023-03-29T01:07:48.192Z,5.60
2023-03-29T01:12:56.464Z,7.20
2023-03-29T01:18:02.024Z,8.75
2023-03-29T01:23:17.579Z,8.88
2023-03-29T01:28:33.538Z,6.97
2023-03-29T01:33:45.405Z,6.80
2023-03-29T01:38:52.963Z,7.32
2023-03-29T01:44:04.753Z,7.00
2023-03-29T01:49:28.716Z,6.25
2023-03-29T01:54:39.931Z,5.38
2023-03-29T01:59:46.045Z,5.17
2023-03-29T02:04:52.525Z,5.95
2023-03-29T02:09:55.732Z,6.10
2023-03-29T02:14:59.812Z,6.05
2023-03-29T02:20:20.677Z,8.57
2023-03-29T02:25:24.626Z,6.75
2023-03-29T02:30:34.888Z,6.35
2023-03-29T02:35:46.302Z,6.35
2023-03-29T02:40:49.244Z,9.57
2023-03-29T02:45:53.149Z,7.22
2023-03-29T02:51:01.567Z,7.90
2023-03-29T02:56:04.904Z,5.85
2023-03-29T03:01:09.766Z,7.13
2023-03-29T03:06:13.635Z,5.47
2023-03-29T03:11:17.105Z,6.13
2023-03-29T03:16:19.709Z,8.35
2023-03-29T03:21:23.246Z,6.93
2023-03-29T03:26:30.013Z,6.18
2023-03-29T03:31:33.721Z,7.50
2023-03-29T03:36:48.901Z,7.35
2023-03-29T03:41:51.493Z,6.85
2023-03-29T03:46:54.839Z,8.75
2023-03-29T03:51:57.433Z,9.38
2023-03-29T03:57:00.198Z,7.35
2023-03-29T04:02:11.432Z,8.90
2023-03-29T04:07:17.941Z,13.48
2023-03-29T04:12:46.956Z,9.70
2023-03-29T04:17:49.723Z,11.00
2023-03-29T04:23:06.953Z,8.25
2023-03-29T04:28:12.865Z,10.07
2023-03-29T04:33:29.485Z,11.05
2023-03-29T04:38:38.481Z,8.52
2023-03-29T04:43:41.725Z,10.85
2023-03-29T04:48:57.515Z,10.88
2023-03-29T04:54:10.909Z,10.32
2023-03-29T04:59:33.208Z,11.75
2023-03-29T05:04:38.622Z,12.55
2023-03-29T05:09:48.202Z,9.82
2023-03-29T05:14:51.299Z,10.55
2023-03-29T05:19:55.105Z,7.53
2023-03-29T05:25:00.710Z,10.20
2023-03-29T05:30:04.044Z,9.57
2023-03-29T05:35:29.439Z,11.63
2023-03-29T05:40:34.158Z,13.27
2023-03-29T05:45:55.754Z,9.88
2023-03-29T05:50:59.435Z,10.32
2023-03-29T05:56:02.446Z,9.65
2023-03-29T06:01:12.686Z,10.20
2023-03-29T06:06:36.290Z,6.03
2023-03-29T06:11:39.359Z,6.95
2023-03-29T06:16:45.180Z,8.20
2023-03-29T06:21:49.428Z,11.02
2023-03-29T06:26:58.175Z,7.20
2023-03-29T06:32:00.859Z,8.15
2023-03-29T06:37:32.719Z,8.95
2023-03-29T06:42:46.687Z,6.47
2023-03-29T06:48:08.197Z,12.93
2023-03-29T06:53:11.643Z,7.00
2023-03-29T06:58:15.763Z,7.00
2023-03-29T07:03:23.637Z,9.63
2023-03-29T07:08:35.288Z,6.50
2023-03-29T07:13:44.040Z,8.00
2023-03-29T07:18:51.400Z,7.40
2023-03-29T07:24:13.109Z,8.82
2023-03-29T07:29:16.993Z,6.15
2023-03-29T07:34:20.003Z,6.53
2023-03-29T07:39:22.858Z,10.38
2023-03-29T07:44:45.906Z,7.65
2023-03-29T07:49:49.001Z,8.20
2023-03-29T07:54:52.310Z,10.10
2023-03-29T08:00:16.689Z,8.73
2023-03-29T08:05:40.734Z,8.82
2023-03-29T08:10:50.474Z,8.35
2023-03-29T08:16:03.550Z,8.07
2023-03-29T08:21:11.861Z,10.52
2023-03-29T08:26:16.062Z,11.27
2023-03-29T08:31:19.433Z,7.70
2023-03-29T08:36:22.550Z,9.15
2023-03-29T08:41:58.421Z,7.40
2023-03-29T08:47:28.734Z,6.80
2023-03-29T08:58:08.318Z,10.18
2023-03-29T09:03:24.417Z,7.50
2023-03-29T09:08:30.595Z,7.57
2023-03-29T09:13:39.352Z,10.02
2023-03-29T09:18:59.875Z,10.15
2023-03-29T09:24:10.251Z,8.23
2023-03-29T09:30:17.262Z,9.57
2023-03-29T09:35:38.988Z,7.38
2023-03-29T09:40:45.257Z,6.97
2023-03-29T09:46:00.827Z,8.60
2023-03-29T09:51:07.683Z,6.75
2023-03-29T09:56:15.944Z,10.40
2023-03-29T10:01:24.012Z,8.73
2023-03-29T10:06:27.069Z,7.43
2023-03-29T10:11:38.669Z,8.02
2023-03-29T10:16:46.217Z,7.55
2023-03-29T10:21:56.018Z,7.45
2023-03-29T10:27:02.379Z,7.80
2023-03-29T10:32:15.622Z,9.55
2023-03-29T10:37:19.958Z,6.35
2023-03-29T10:42:24.536Z,13.00
2023-03-29T10:47:34.454Z,7.63
2023-03-29T10:52:39.982Z,7.10
2023-03-29T10:58:13.573Z,8.57
2023-03-29T11:03:43.817Z,7.35
2023-03-29T11:09:02.286Z,7.80
2023-03-29T11:14:26.115Z,8.93
2023-03-29T11:19:47.435Z,6.53
2023-03-29T11:24:52.831Z,14.70
2023-03-29T11:29:58.742Z,8.38
2023-03-29T11:35:19.209Z,6.70
2023-03-29T11:40:36.269Z,9.82
2023-03-29T11:45:51.476Z,6.57
2023-03-29T11:51:06.800Z,7.95
2023-03-29T11:56:15.850Z,8.68
2023-03-29T12:01:33.529Z,6.32
2023-03-29T12:07:15.823Z,5.90
2023-03-29T12:12:30.425Z,6.82
2023-03-29T12:18:10.352Z,4.90
2023-03-29T12:23:15.500Z,5.93
2023-03-29T12:28:18.134Z,4.80
2023-03-29T12:33:21.682Z,7.22
2023-03-29T12:38:31.253Z,3.72
2023-03-29T12:43:52.852Z,6.00
2023-03-29T12:49:31.865Z,4.38
2023-03-29T12:54:34.465Z,6.00
2023-03-29T12:59:39.971Z,5.45
2023-03-29T13:04:57.586Z,8.90
2023-03-29T13:10:08.942Z,4.95
2023-03-29T13:15:14.466Z,4.32
2023-03-29T13:20:17.469Z,4.55
2023-03-29T13:25:50.981Z,4.10
2023-03-29T13:31:23.007Z,4.88
2023-03-29T13:36:43.985Z,4.75
2023-03-29T13:41:51.834Z,3.75
2023-03-29T13:47:05.000Z,4.65
2023-03-29T13:52:21.449Z,4.63
2023-03-29T13:57:32.334Z,5.97
2023-03-29T14:02:48.096Z,4.07
2023-03-29T14:07:54.368Z,8.65
2023-03-29T14:12:57.725Z,7.43
2023-03-29T14:18:01.531Z,5.45
2023-03-29T14:23:13.836Z,7.45
2023-03-29T14:28:26.435Z,5.88
2023-03-29T14:33:33.551Z,8.68
2023-03-29T14:38:37.410Z,5.90
2023-03-29T14:43:40.934Z,5.32
2023-03-29T14:48:44.087Z,6.53
2023-03-29T14:53:48.714Z,4.63
2023-03-29T14:58:55.568Z,6.85
2023-03-29T15:04:11.107Z,5.90
2023-03-29T15:09:27.898Z,7.32
2023-03-29T15:14:34.040Z,6.97
2023-03-29T15:19:37.006Z,4.93
2023-03-29T15:24:47.790Z,5.35
2023-03-29T15:30:01.417Z,6.45
2023-03-29T15:35:09.476Z,7.47
2023-03-29T15:40:21.507Z,7.70
2023-03-29T15:55:32.154Z,10.93
2023-03-29T16:00:36.040Z,8.65
2023-03-29T16:05:38.726Z,10.07
2023-03-29T16:10:43.924Z,8.23
2023-03-29T16:15:47.065Z,7.93
2023-03-29T16:20:49.820Z,8.75
2023-03-29T16:25:52.442Z,8.65
2023-03-29T16:30:55.084Z,9.23
2023-03-29T16:35:57.783Z,10.98
2023-03-29T16:41:00.908Z,10.43
2023-03-29T16:46:04.090Z,10.75
2023-03-29T16:51:07.436Z,9.07
2023-03-29T16:56:10.975Z,11.02
2023-03-29T17:01:19.405Z,11.63
2023-03-29T17:06:22.157Z,10.02
2023-03-29T17:11:26.285Z,15.98
2023-03-29T17:16:29.357Z,12.23
2023-03-29T17:21:32.223Z,11.80
2023-03-29T17:26:34.818Z,14.02
2023-03-29T17:31:41.106Z,17.45
2023-03-29T17:36:45.816Z,13.85
2023-03-29T17:41:48.512Z,14.45
2023-03-29T17:46:51.508Z,14.45
2023-03-29T17:51:54.114Z,17.55
2023-03-29T17:56:56.830Z,21.15
2023-03-29T18:02:02.660Z,18.88
2023-03-29T18:07:05.327Z,18.63
2023-03-29T18:12:09.203Z,18.58
2023-03-29T18:17:11.873Z,15.40
2023-03-29T18:22:14.801Z,21.45
2023-03-29T18:27:17.860Z,17.67
2023-03-29T18:32:21.612Z,20.13
2023-03-29T18:37:24.360Z,29.83
2023-03-29T18:42:27.459Z,21.15
2023-03-29T18:47:30.234Z,19.42
2023-03-29T18:52:33.375Z,18.10
2023-03-29T18:57:36.179Z,18.75
2023-03-29T19:02:40.476Z,18.20
2023-03-29T19:07:43.258Z,19.10
2023-03-29T19:12:45.975Z,18.77
2023-03-29T19:17:48.680Z,19.17
2023-03-29T19:22:52.220Z,18.00
2023-03-29T19:27:55.111Z,16.92
2023-03-29T19:32:57.947Z,19.02
2023-03-29T19:38:01.008Z,19.58
2023-03-29T19:43:04.545Z,18.30
2023-03-29T19:48:07.408Z,18.00
2023-03-29T19:53:11.181Z,13.32
2023-03-29T19:58:13.790Z,17.52
2023-03-29T20:03:17.441Z,17.17
2023-03-29T20:08:20.389Z,16.55
2023-03-29T20:13:35.363Z,16.83
2023-03-29T20:18:41.060Z,18.67
2023-03-29T20:23:44.265Z,17.80
2023-03-29T20:28:46.979Z,13.35
2023-03-29T20:33:49.850Z,15.85
2023-03-29T20:38:55.310Z,16.30
2023-03-29T20:43:58.636Z,15.38
2023-03-29T20:49:06.110Z,17.92
2023-03-29T20:54:10.043Z,17.70
2023-03-29T20:59:12.744Z,17.33
2023-03-29T21:04:15.512Z,18.15
2023-03-29T21:09:24.181Z,19.17
2023-03-29T21:14:26.910Z,22.08
2023-03-29T21:19:29.859Z,20.45
2023-03-29T21:24:33.229Z,21.05
2023-03-29T21:29:35.896Z,19.08
2023-03-29T21:34:38.581Z,22.05
2023-03-29T21:39:41.453Z,20.70
2023-03-29T21:44:44.502Z,25.23
2023-03-29T21:49:47.400Z,22.70
2023-03-29T21:54:50.067Z,20.63
2023-03-29T21:59:52.693Z,21.23
2023-03-29T22:04:55.763Z,22.27
2023-03-29T22:09:58.758Z,22.52
2023-03-29T22:15:01.942Z,21.30
2023-03-29T22:20:14.642Z,24.08
2023-03-29T22:25:18.742Z,18.45
2023-03-29T22:30:22.957Z,21.83
2023-03-29T22:35:25.783Z,25.20
2023-03-29T22:40:28.365Z,22.05
2023-03-29T22:45:30.961Z,24.38
2023-03-29T22:50:33.501Z,26.33
2023-03-29T22:55:36.831Z,24.10
2023-03-29T23:00:39.398Z,26.30
2023-03-29T23:05:42.023Z,22.25
2023-03-29T23:10:47.121Z,24.25
2023-03-29T23:15:50.663Z,26.23
2023-03-29T23:20:55.707Z,26.00
2023-03-29T23:25:58.345Z,26.38
2023-03-29T23:31:04.297Z,26.88
2023-03-29T23:36:15.561Z,23.35
2023-03-29T23:41:20.249Z,21.43
2023-03-29T23:46:22.893Z,18.63
2023-03-29T23:51:28.442Z,23.38
2023-03-29T23:56:31.368Z,19.27
